sensor_id;sensor_type;location;lat;lon;timestamp;P1;durP1;ratioP1;P2;durP2;ratioP2
2211;SDS011;48849;48.758;9.158;2023-10-19T00:02:04;19.42;;;17.48;;
2211;SDS011;48849;48.758;9.158;2023-10-19T00:04:31;18.85;;;16.95;;
2211;SDS011;48849;48.758;9.158;2023-10-19T00:06:59;19.02;;;17.13;;
2211;SDS011;48849;48.758;9.158;2023-10-19T00:09:25;17.70;;;15.80;;
2211;SDS011;48849;48.758;9.158;2023-10-19T00:11:56;17.67;;;15.70;;
2211;SDS011;48849;48.758;9.158;2023-10-19T00:14:23;19.65;;;16.60;;
2211;SDS011;48849;48.758;9.158;2023-10-19T00:16:51;18.35;;;16.45;;
2211;SDS011;48849;48.758;9.158;2023-10-19T00:19:21;18.67;;;16.20;;
2211;SDS011;48849;48.758;9.158;2023-10-19T00:21:47;19.00;;;15.00;;
2211;SDS011;48849;48.758;9.158;2023-10-19T00:24:18;15.60;;;14.10;;
2211;SDS011;48849;48.758;9.158;2023-10-19T00:26:45;16.73;;;15.13;;
2211;SDS011;48849;48.758;9.158;2023-10-19T00:29:13;18.52;;;16.48;;
2211;SDS011;48849;48.758;9.158;2023-10-19T00:31:55;16.13;;;14.52;;
2211;SDS011;48849;48.758;9.158;2023-10-19T00:34:23;17.67;;;15.82;;
2211;SDS011;48849;48.758;9.158;2023-10-19T00:36:50;17.08;;;15.38;;
2211;SDS011;48849;48.758;9.158;2023-10-19T00:39:18;16.67;;;15.07;;
2211;SDS011;48849;48.758;9.158;2023-10-19T00:41:47;15.40;;;13.85;;
2211;SDS011;48849;48.758;9.158;2023-10-19T00:44:15;15.73;;;14.23;;
2211;SDS011;48849;48.758;9.158;2023-10-19T00:46:47;15.70;;;13.95;;
2211;SDS011;48849;48.758;9.158;2023-10-19T00:49:27;15.15;;;13.20;;
2211;SDS011;48849;48.758;9.158;2023-10-19T00:51:55;14.75;;;13.25;;
2211;SDS011;48849;48.758;9.158;2023-10-19T00:54:31;15.13;;;13.52;;
2211;SDS011;48849;48.758;9.158;2023-10-19T00:57:00;14.20;;;12.80;;
2211;SDS011;48849;48.758;9.158;2023-10-19T00:59:32;14.38;;;12.60;;
2211;SDS011;48849;48.758;9.158;2023-10-19T01:02:07;12.88;;;11.27;;
2211;SDS011;48849;48.758;9.158;2023-10-19T01:04:45;13.07;;;10.75;;
2211;SDS011;48849;48.758;9.158;2023-10-19T01:07:15;13.20;;;11.90;;
2211;SDS011;48849;48.758;9.158;2023-10-19T01:09:49;13.95;;;12.55;;
2211;SDS011;48849;48.758;9.158;2023-10-19T01:12:18;12.43;;;11.07;;
2211;SDS011;48849;48.758;9.158;2023-10-19T01:15:06;14.35;;;12.98;;
2211;SDS011;48849;48.758;9.158;2023-10-19T01:17:37;11.85;;;10.75;;
2211;SDS011;48849;48.758;9.158;2023-10-19T01:20:08;11.50;;;10.35;;
2211;SDS011;48849;48.758;9.158;2023-10-19T01:22:47;10.93;;;9.85;;
2211;SDS011;48849;48.758;9.158;2023-10-19T01:25:18;13.23;;;10.88;;
2211;SDS011;48849;48.758;9.158;2023-10-19T01:27:49;9.23;;;8.30;;
2211;SDS011;48849;48.758;9.158;2023-10-19T01:30:22;10.35;;;8.43;;
2211;SDS011;48849;48.758;9.158;2023-10-19T01:32:52;8.02;;;7.32;;
2211;SDS011;48849;48.758;9.158;2023-10-19T01:35:19;9.32;;;7.78;;
2211;SDS011;48849;48.758;9.158;2023-10-19T01:37:47;9.02;;;7.60;;
2211;SDS011;48849;48.758;9.158;2023-10-19T01:40:13;8.82;;;7.93;;
2211;SDS011;48849;48.758;9.158;2023-10-19T01:42:45;8.98;;;7.35;;
2211;SDS011;48849;48.758;9.158;2023-10-19T01:45:11;9.90;;;8.30;;
2211;SDS011;48849;48.758;9.158;2023-10-19T01:47:37;9.02;;;8.18;;
2211;SDS011;48849;48.758;9.158;2023-10-19T01:50:05;7.95;;;7.15;;
2211;SDS011;48849;48.758;9.158;2023-10-19T01:52:44;9.70;;;6.88;;
2211;SDS011;48849;48.758;9.158;2023-10-19T01:55:12;8.43;;;7.53;;
2211;SDS011;48849;48.758;9.158;2023-10-19T01:57:45;8.45;;;7.20;;
2211;SDS011;48849;48.758;9.158;2023-10-19T02:00:11;9.27;;;8.30;;
2211;SDS011;48849;48.758;9.158;2023-10-19T02:02:48;10.40;;;7.82;;
2211;SDS011;48849;48.758;9.158;2023-10-19T02:05:13;7.50;;;6.80;;
2211;SDS011;48849;48.758;9.158;2023-10-19T02:07:41;12.60;;;7.90;;
2211;SDS011;48849;48.758;9.158;2023-10-19T02:10:09;8.20;;;7.40;;
2211;SDS011;48849;48.758;9.158;2023-10-19T02:12:37;8.38;;;7.57;;
2211;SDS011;48849;48.758;9.158;2023-10-19T02:15:07;8.25;;;7.45;;
2211;SDS011;48849;48.758;9.158;2023-10-19T02:17:34;8.10;;;7.20;;
2211;SDS011;48849;48.758;9.158;2023-10-19T02:20:00;9.47;;;8.57;;
2211;SDS011;48849;48.758;9.158;2023-10-19T02:22:28;9.77;;;8.77;;
2211;SDS011;48849;48.758;9.158;2023-10-19T02:24:53;9.93;;;8.57;;
2211;SDS011;48849;48.758;9.158;2023-10-19T02:27:22;9.10;;;8.23;;
2211;SDS011;48849;48.758;9.158;2023-10-19T02:29:47;8.60;;;7.80;;
2211;SDS011;48849;48.758;9.158;2023-10-19T02:32:15;9.73;;;8.82;;
2211;SDS011;48849;48.758;9.158;2023-10-19T02:34:43;10.50;;;9.40;;
2211;SDS011;48849;48.758;9.158;2023-10-19T02:37:11;13.10;;;8.82;;
2211;SDS011;48849;48.758;9.158;2023-10-19T02:39:39;10.07;;;8.80;;
2211;SDS011;48849;48.758;9.158;2023-10-19T02:42:04;10.23;;;9.33;;
2211;SDS011;48849;48.758;9.158;2023-10-19T02:44:34;10.68;;;9.13;;
2211;SDS011;48849;48.758;9.158;2023-10-19T02:47:02;12.35;;;9.57;;
2211;SDS011;48849;48.758;9.158;2023-10-19T02:49:34;10.45;;;9.35;;
2211;SDS011;48849;48.758;9.158;2023-10-19T02:52:03;9.27;;;8.38;;
2211;SDS011;48849;48.758;9.158;2023-10-19T02:54:30;10.07;;;9.07;;
2211;SDS011;48849;48.758;9.158;2023-10-19T02:56:58;16.65;;;9.65;;
2211;SDS011;48849;48.758;9.158;2023-10-19T02:59:26;12.00;;;8.48;;
2211;SDS011;48849;48.758;9.158;2023-10-19T03:01:57;9.20;;;8.30;;
2211;SDS011;48849;48.758;9.158;2023-10-19T03:04:30;10.30;;;8.00;;
2211;SDS011;48849;48.758;9.158;2023-10-19T03:07:01;12.00;;;8.45;;
2211;SDS011;48849;48.758;9.158;2023-10-19T03:09:27;8.40;;;7.60;;
2211;SDS011;48849;48.758;9.158;2023-10-19T03:11:55;10.10;;;7.68;;
2211;SDS011;48849;48.758;9.158;2023-10-19T03:14:24;8.20;;;7.47;;
2211;SDS011;48849;48.758;9.158;2023-10-19T03:16:51;8.07;;;7.38;;
2211;SDS011;48849;48.758;9.158;2023-10-19T03:19:19;8.65;;;7.30;;
2211;SDS011;48849;48.758;9.158;2023-10-19T03:21:45;8.80;;;7.93;;
2211;SDS011;48849;48.758;9.158;2023-10-19T03:24:14;7.43;;;6.75;;
2211;SDS011;48849;48.758;9.158;2023-10-19T03:26:48;7.45;;;6.80;;
2211;SDS011;48849;48.758;9.158;2023-10-19T03:29:14;8.60;;;6.47;;
2211;SDS011;48849;48.758;9.158;2023-10-19T03:31:43;6.82;;;6.00;;
2211;SDS011;48849;48.758;9.158;2023-10-19T03:34:11;7.00;;;6.32;;
2211;SDS011;48849;48.758;9.158;2023-10-19T03:36:40;8.15;;;5.85;;
2211;SDS011;48849;48.758;9.158;2023-10-19T03:39:07;6.80;;;5.90;;
2211;SDS011;48849;48.758;9.158;2023-10-19T03:41:38;7.85;;;5.75;;
2211;SDS011;48849;48.758;9.158;2023-10-19T03:44:07;6.32;;;5.72;;
2211;SDS011;48849;48.758;9.158;2023-10-19T03:46:38;7.00;;;5.70;;
2211;SDS011;48849;48.758;9.158;2023-10-19T03:49:17;6.72;;;5.68;;
2211;SDS011;48849;48.758;9.158;2023-10-19T03:51:46;6.65;;;5.68;;
2211;SDS011;48849;48.758;9.158;2023-10-19T03:54:25;6.85;;;5.88;;
2211;SDS011;48849;48.758;9.158;2023-10-19T03:56:52;6.47;;;5.88;;
2211;SDS011;48849;48.758;9.158;2023-10-19T03:59:20;5.88;;;5.32;;
2211;SDS011;48849;48.758;9.158;2023-10-19T04:01:54;7.25;;;5.43;;
2211;SDS011;48849;48.758;9.158;2023-10-19T04:04:21;7.72;;;5.22;;
2211;SDS011;48849;48.758;9.158;2023-10-19T04:06:49;5.68;;;5.13;;
2211;SDS011;48849;48.758;9.158;2023-10-19T04:09:22;5.68;;;5.10;;
2211;SDS011;48849;48.758;9.158;2023-10-19T04:11:53;6.32;;;5.60;;
2211;SDS011;48849;48.758;9.158;2023-10-19T04:14:21;6.10;;;5.38;;
2211;SDS011;48849;48.758;9.158;2023-10-19T04:16:48;7.50;;;5.10;;
2211;SDS011;48849;48.758;9.158;2023-10-19T04:19:15;6.45;;;5.10;;
2211;SDS011;48849;48.758;9.158;2023-10-19T04:21:42;6.35;;;5.72;;
2211;SDS011;48849;48.758;9.158;2023-10-19T04:24:13;5.50;;;5.00;;
2211;SDS011;48849;48.758;9.158;2023-10-19T04:26:40;6.40;;;5.68;;
2211;SDS011;48849;48.758;9.158;2023-10-19T04:29:07;6.10;;;5.50;;
2211;SDS011;48849;48.758;9.158;2023-10-19T04:31:37;6.20;;;5.35;;
2211;SDS011;48849;48.758;9.158;2023-10-19T04:34:12;8.02;;;5.80;;
2211;SDS011;48849;48.758;9.158;2023-10-19T04:36:39;5.50;;;5.00;;
2211;SDS011;48849;48.758;9.158;2023-10-19T04:39:08;6.75;;;5.40;;
2211;SDS011;48849;48.758;9.158;2023-10-19T04:41:40;5.57;;;5.05;;
2211;SDS011;48849;48.758;9.158;2023-10-19T04:44:07;7.20;;;5.65;;
2211;SDS011;48849;48.758;9.158;2023-10-19T04:46:34;6.75;;;5.40;;
2211;SDS011;48849;48.758;9.158;2023-10-19T04:49:01;6.55;;;5.40;;
2211;SDS011;48849;48.758;9.158;2023-10-19T04:51:28;5.30;;;4.80;;
2211;SDS011;48849;48.758;9.158;2023-10-19T04:53:55;5.90;;;5.30;;
2211;SDS011;48849;48.758;9.158;2023-10-19T04:56:22;9.80;;;5.43;;
2211;SDS011;48849;48.758;9.158;2023-10-19T04:58:50;5.30;;;4.80;;
2211;SDS011;48849;48.758;9.158;2023-10-19T05:01:17;5.78;;;5.28;;
2211;SDS011;48849;48.758;9.158;2023-10-19T05:03:44;5.82;;;5.32;;
2211;SDS011;48849;48.758;9.158;2023-10-19T05:06:11;5.07;;;4.60;;
2211;SDS011;48849;48.758;9.158;2023-10-19T05:08:38;7.07;;;5.38;;
2211;SDS011;48849;48.758;9.158;2023-10-19T05:11:05;6.75;;;5.55;;
2211;SDS011;48849;48.758;9.158;2023-10-19T05:13:32;5.05;;;4.65;;
2211;SDS011;48849;48.758;9.158;2023-10-19T05:16:01;5.45;;;4.90;;
2211;SDS011;48849;48.758;9.158;2023-10-19T05:18:28;5.05;;;4.55;;
2211;SDS011;48849;48.758;9.158;2023-10-19T05:20:55;5.70;;;5.03;;
2211;SDS011;48849;48.758;9.158;2023-10-19T05:23:22;6.95;;;5.40;;
2211;SDS011;48849;48.758;9.158;2023-10-19T05:25:50;5.78;;;5.15;;
2211;SDS011;48849;48.758;9.158;2023-10-19T05:28:18;7.80;;;5.70;;
2211;SDS011;48849;48.758;9.158;2023-10-19T05:30:46;6.30;;;5.70;;
2211;SDS011;48849;48.758;9.158;2023-10-19T05:33:15;6.97;;;5.00;;
2211;SDS011;48849;48.758;9.158;2023-10-19T05:35:45;5.20;;;4.70;;
2211;SDS011;48849;48.758;9.158;2023-10-19T05:38:12;6.28;;;5.68;;
2211;SDS011;48849;48.758;9.158;2023-10-19T05:40:39;8.43;;;5.28;;
2211;SDS011;48849;48.758;9.158;2023-10-19T05:43:08;5.45;;;4.95;;
2211;SDS011;48849;48.758;9.158;2023-10-19T05:45:35;6.18;;;5.57;;
2211;SDS011;48849;48.758;9.158;2023-10-19T05:48:02;5.85;;;5.28;;
2211;SDS011;48849;48.758;9.158;2023-10-19T05:50:33;7.20;;;5.38;;
2211;SDS011;48849;48.758;9.158;2023-10-19T05:52:59;5.95;;;5.43;;
2211;SDS011;48849;48.758;9.158;2023-10-19T05:55:28;8.13;;;6.28;;
2211;SDS011;48849;48.758;9.158;2023-10-19T05:57:55;10.68;;;5.05;;
2211;SDS011;48849;48.758;9.158;2023-10-19T06:00:24;8.63;;;5.97;;
2211;SDS011;48849;48.758;9.158;2023-10-19T06:02:51;6.15;;;5.50;;
2211;SDS011;48849;48.758;9.158;2023-10-19T06:05:20;5.05;;;4.55;;
2211;SDS011;48849;48.758;9.158;2023-10-19T06:07:50;5.75;;;5.25;;
2211;SDS011;48849;48.758;9.158;2023-10-19T06:10:17;5.82;;;5.32;;
2211;SDS011;48849;48.758;9.158;2023-10-19T06:12:48;6.78;;;5.65;;
2211;SDS011;48849;48.758;9.158;2023-10-19T06:15:16;5.90;;;4.95;;
2211;SDS011;48849;48.758;9.158;2023-10-19T06:17:46;7.47;;;6.35;;
2211;SDS011;48849;48.758;9.158;2023-10-19T06:20:13;6.90;;;5.35;;
2211;SDS011;48849;48.758;9.158;2023-10-19T06:22:50;8.88;;;5.95;;
2211;SDS011;48849;48.758;9.158;2023-10-19T06:25:17;7.25;;;6.55;;
2211;SDS011;48849;48.758;9.158;2023-10-19T06:27:45;8.00;;;7.13;;
2211;SDS011;48849;48.758;9.158;2023-10-19T06:30:13;10.25;;;6.97;;
2211;SDS011;48849;48.758;9.158;2023-10-19T06:32:43;7.72;;;7.00;;
2211;SDS011;48849;48.758;9.158;2023-10-19T06:35:12;8.30;;;7.45;;
2211;SDS011;48849;48.758;9.158;2023-10-19T06:37:38;9.02;;;8.13;;
2211;SDS011;48849;48.758;9.158;2023-10-19T06:40:10;7.85;;;7.07;;
2211;SDS011;48849;48.758;9.158;2023-10-19T06:42:46;7.90;;;7.10;;
2211;SDS011;48849;48.758;9.158;2023-10-19T07:25:45;16.05;;;11.73;;
2211;SDS011;48849;48.758;9.158;2023-10-19T07:28:18;19.10;;;12.88;;
2211;SDS011;48849;48.758;9.158;2023-10-19T07:30:46;20.85;;;13.15;;
2211;SDS011;48849;48.758;9.158;2023-10-19T07:33:16;18.75;;;13.55;;
2211;SDS011;48849;48.758;9.158;2023-10-19T07:35:44;14.30;;;12.80;;
2211;SDS011;48849;48.758;9.158;2023-10-19T07:38:12;15.10;;;12.80;;
2211;SDS011;48849;48.758;9.158;2023-10-19T07:40:40;15.70;;;12.70;;
2211;SDS011;48849;48.758;9.158;2023-10-19T07:43:08;20.60;;;15.00;;
2211;SDS011;48849;48.758;9.158;2023-10-19T07:45:35;17.73;;;12.25;;
2211;SDS011;48849;48.758;9.158;2023-10-19T07:48:08;15.98;;;13.20;;
2211;SDS011;48849;48.758;9.158;2023-10-19T07:50:36;17.10;;;14.13;;
2211;SDS011;48849;48.758;9.158;2023-10-19T07:53:05;32.28;;;13.23;;
2211;SDS011;48849;48.758;9.158;2023-10-19T07:55:34;14.90;;;12.38;;
2211;SDS011;48849;48.758;9.158;2023-10-19T07:58:03;15.43;;;13.43;;
2211;SDS011;48849;48.758;9.158;2023-10-19T08:00:31;19.48;;;13.82;;
2211;SDS011;48849;48.758;9.158;2023-10-19T08:02:59;16.00;;;14.13;;
2211;SDS011;48849;48.758;9.158;2023-10-19T08:05:29;17.13;;;13.63;;
2211;SDS011;48849;48.758;9.158;2023-10-19T08:07:56;15.77;;;13.98;;
2211;SDS011;48849;48.758;9.158;2023-10-19T08:10:24;17.98;;;14.95;;
2211;SDS011;48849;48.758;9.158;2023-10-19T08:12:51;19.20;;;14.27;;
2211;SDS011;48849;48.758;9.158;2023-10-19T08:15:20;15.25;;;13.55;;
2211;SDS011;48849;48.758;9.158;2023-10-19T08:17:49;21.02;;;14.80;;
2211;SDS011;48849;48.758;9.158;2023-10-19T08:20:18;17.50;;;13.45;;
2211;SDS011;48849;48.758;9.158;2023-10-19T08:22:49;18.08;;;15.05;;
2211;SDS011;48849;48.758;9.158;2023-10-19T08:25:16;20.90;;;14.48;;
2211;SDS011;48849;48.758;9.158;2023-10-19T08:27:46;18.33;;;13.95;;
2211;SDS011;48849;48.758;9.158;2023-10-19T10:14:40;20.77;;;13.88;;
2211;SDS011;48849;48.758;9.158;2023-10-19T10:17:21;16.52;;;14.45;;
2211;SDS011;48849;48.758;9.158;2023-10-19T10:19:49;16.15;;;14.55;;
2211;SDS011;48849;48.758;9.158;2023-10-19T10:22:16;15.05;;;13.30;;
2211;SDS011;48849;48.758;9.158;2023-10-19T10:24:59;18.55;;;13.63;;
2211;SDS011;48849;48.758;9.158;2023-10-19T10:27:32;17.83;;;14.30;;
2211;SDS011;48849;48.758;9.158;2023-10-19T10:30:04;14.35;;;12.85;;
2211;SDS011;48849;48.758;9.158;2023-10-19T10:32:42;16.42;;;14.50;;
2211;SDS011;48849;48.758;9.158;2023-10-19T10:35:25;16.90;;;14.55;;
2211;SDS011;48849;48.758;9.158;2023-10-19T10:38:26;15.88;;;14.27;;
2211;SDS011;48849;48.758;9.158;2023-10-19T10:41:00;23.20;;;15.80;;
2211;SDS011;48849;48.758;9.158;2023-10-19T10:43:46;17.63;;;15.30;;
2211;SDS011;48849;48.758;9.158;2023-10-19T10:46:30;19.38;;;15.93;;
2211;SDS011;48849;48.758;9.158;2023-10-19T10:48:57;17.98;;;16.05;;
2211;SDS011;48849;48.758;9.158;2023-10-19T10:51:25;17.58;;;15.80;;
2211;SDS011;48849;48.758;9.158;2023-10-19T10:53:54;23.83;;;16.83;;
2211;SDS011;48849;48.758;9.158;2023-10-19T10:56:22;19.40;;;17.42;;
2211;SDS011;48849;48.758;9.158;2023-10-19T10:58:50;20.55;;;18.27;;
2211;SDS011;48849;48.758;9.158;2023-10-19T11:01:27;24.83;;;17.25;;
2211;SDS011;48849;48.758;9.158;2023-10-19T11:04:06;19.25;;;17.35;;
2211;SDS011;48849;48.758;9.158;2023-10-19T11:06:36;18.67;;;16.83;;
2211;SDS011;48849;48.758;9.158;2023-10-19T11:09:14;18.20;;;16.40;;
2211;SDS011;48849;48.758;9.158;2023-10-19T11:11:43;18.75;;;15.90;;
2211;SDS011;48849;48.758;9.158;2023-10-19T11:14:10;15.98;;;14.40;;
2211;SDS011;48849;48.758;9.158;2023-10-19T11:16:38;14.13;;;12.75;;
2211;SDS011;48849;48.758;9.158;2023-10-19T11:19:06;15.40;;;13.80;;
2211;SDS011;48849;48.758;9.158;2023-10-19T11:21:34;13.40;;;12.05;;
2211;SDS011;48849;48.758;9.158;2023-10-19T11:24:02;14.77;;;11.95;;
2211;SDS011;48849;48.758;9.158;2023-10-19T11:26:29;14.30;;;12.82;;
2211;SDS011;48849;48.758;9.158;2023-10-19T11:28:56;15.75;;;14.15;;
2211;SDS011;48849;48.758;9.158;2023-10-19T11:31:23;13.65;;;12.18;;
2211;SDS011;48849;48.758;9.158;2023-10-19T11:33:51;13.60;;;12.23;;
2211;SDS011;48849;48.758;9.158;2023-10-19T11:36:21;14.50;;;13.10;;
2211;SDS011;48849;48.758;9.158;2023-10-19T11:38:50;13.98;;;12.27;;
2211;SDS011;48849;48.758;9.158;2023-10-19T11:41:18;15.25;;;13.75;;
2211;SDS011;48849;48.758;9.158;2023-10-19T11:43:46;14.43;;;12.73;;
2211;SDS011;48849;48.758;9.158;2023-10-19T11:46:13;10.65;;;9.65;;
2211;SDS011;48849;48.758;9.158;2023-10-19T11:48:42;12.15;;;10.95;;
2211;SDS011;48849;48.758;9.158;2023-10-19T11:51:10;12.23;;;11.02;;
2211;SDS011;48849;48.758;9.158;2023-10-19T11:53:40;12.65;;;11.32;;
2211;SDS011;48849;48.758;9.158;2023-10-19T11:56:10;13.30;;;10.80;;
2211;SDS011;48849;48.758;9.158;2023-10-19T11:58:38;13.85;;;11.18;;
2211;SDS011;48849;48.758;9.158;2023-10-19T12:01:06;18.88;;;10.68;;
2211;SDS011;48849;48.758;9.158;2023-10-19T12:03:37;13.98;;;11.65;;
2211;SDS011;48849;48.758;9.158;2023-10-19T12:06:05;15.23;;;10.70;;
2211;SDS011;48849;48.758;9.158;2023-10-19T12:08:32;11.80;;;10.60;;
2211;SDS011;48849;48.758;9.158;2023-10-19T12:11:00;11.70;;;10.10;;
2211;SDS011;48849;48.758;9.158;2023-10-19T12:13:28;12.35;;;10.20;;
2211;SDS011;48849;48.758;9.158;2023-10-19T12:15:56;12.70;;;9.57;;
2211;SDS011;48849;48.758;9.158;2023-10-19T12:18:24;13.82;;;10.00;;
2211;SDS011;48849;48.758;9.158;2023-10-19T12:21:00;10.23;;;8.70;;
2211;SDS011;48849;48.758;9.158;2023-10-19T12:23:27;8.82;;;7.60;;
2211;SDS011;48849;48.758;9.158;2023-10-19T12:25:55;8.00;;;6.53;;
2211;SDS011;48849;48.758;9.158;2023-10-19T12:28:24;8.50;;;7.40;;
2211;SDS011;48849;48.758;9.158;2023-10-19T12:30:50;9.02;;;6.55;;
2211;SDS011;48849;48.758;9.158;2023-10-19T12:33:17;8.80;;;7.18;;
2211;SDS011;48849;48.758;9.158;2023-10-19T12:35:44;7.40;;;6.70;;
2211;SDS011;48849;48.758;9.158;2023-10-19T12:38:14;9.05;;;6.18;;
2211;SDS011;48849;48.758;9.158;2023-10-19T12:40:42;7.10;;;6.40;;
2211;SDS011;48849;48.758;9.158;2023-10-19T12:43:11;8.25;;;7.25;;
2211;SDS011;48849;48.758;9.158;2023-10-19T12:45:40;8.25;;;6.40;;
2211;SDS011;48849;48.758;9.158;2023-10-19T12:48:08;7.70;;;7.00;;
2211;SDS011;48849;48.758;9.158;2023-10-19T12:50:36;8.10;;;7.30;;
2211;SDS011;48849;48.758;9.158;2023-10-19T12:53:04;11.35;;;7.57;;
2211;SDS011;48849;48.758;9.158;2023-10-19T12:55:32;7.50;;;6.60;;
2211;SDS011;48849;48.758;9.158;2023-10-19T12:58:00;8.18;;;7.22;;
2211;SDS011;48849;48.758;9.158;2023-10-19T13:00:32;7.97;;;6.53;;
2211;SDS011;48849;48.758;9.158;2023-10-19T13:03:07;12.38;;;6.25;;
2211;SDS011;48849;48.758;9.158;2023-10-19T13:05:34;8.93;;;6.65;;
2211;SDS011;48849;48.758;9.158;2023-10-19T13:08:02;7.88;;;6.95;;
2211;SDS011;48849;48.758;9.158;2023-10-19T13:10:32;8.32;;;6.90;;
2211;SDS011;48849;48.758;9.158;2023-10-19T13:13:00;8.35;;;6.82;;
2211;SDS011;48849;48.758;9.158;2023-10-19T13:15:29;12.43;;;7.82;;
2211;SDS011;48849;48.758;9.158;2023-10-19T13:17:57;9.10;;;8.18;;
2211;SDS011;48849;48.758;9.158;2023-10-19T13:20:27;9.85;;;8.07;;
2211;SDS011;48849;48.758;9.158;2023-10-19T13:23:00;10.05;;;8.85;;
2211;SDS011;48849;48.758;9.158;2023-10-19T13:25:29;11.45;;;9.57;;
2211;SDS011;48849;48.758;9.158;2023-10-19T13:28:11;11.60;;;9.57;;
2211;SDS011;48849;48.758;9.158;2023-10-19T13:30:46;13.02;;;11.70;;
2211;SDS011;48849;48.758;9.158;2023-10-19T13:33:20;14.90;;;11.45;;
2211;SDS011;48849;48.758;9.158;2023-10-19T13:35:56;15.18;;;12.73;;
2211;SDS011;48849;48.758;9.158;2023-10-19T13:38:33;15.30;;;12.18;;
2211;SDS011;48849;48.758;9.158;2023-10-19T13:41:02;14.82;;;12.85;;
2211;SDS011;48849;48.758;9.158;2023-10-19T13:43:32;15.68;;;12.90;;
2211;SDS011;48849;48.758;9.158;2023-10-19T13:46:00;24.25;;;17.85;;
2211;SDS011;48849;48.758;9.158;2023-10-19T13:48:29;18.75;;;16.45;;
2211;SDS011;48849;48.758;9.158;2023-10-19T13:50:57;16.58;;;14.75;;
2211;SDS011;48849;48.758;9.158;2023-10-19T13:53:30;19.55;;;17.45;;
2211;SDS011;48849;48.758;9.158;2023-10-19T13:55:57;20.20;;;17.10;;
2211;SDS011;48849;48.758;9.158;2023-10-19T14:01:17;18.45;;;16.45;;
2211;SDS011;48849;48.758;9.158;2023-10-19T14:03:46;19.23;;;17.23;;
2211;SDS011;48849;48.758;9.158;2023-10-19T14:06:14;21.02;;;18.10;;
2211;SDS011;48849;48.758;9.158;2023-10-19T14:08:41;16.90;;;15.20;;
2211;SDS011;48849;48.758;9.158;2023-10-19T14:11:08;19.88;;;16.13;;
2211;SDS011;48849;48.758;9.158;2023-10-19T14:13:55;16.05;;;14.35;;
2211;SDS011;48849;48.758;9.158;2023-10-19T14:16:22;14.48;;;13.15;;
2211;SDS011;48849;48.758;9.158;2023-10-19T14:18:50;16.05;;;14.45;;
2211;SDS011;48849;48.758;9.158;2023-10-19T14:29:22;18.48;;;16.38;;
2211;SDS011;48849;48.758;9.158;2023-10-19T14:31:48;23.63;;;21.13;;
2211;SDS011;48849;48.758;9.158;2023-10-19T14:34:15;27.17;;;22.27;;
2211;SDS011;48849;48.758;9.158;2023-10-19T14:36:43;23.85;;;21.35;;
2211;SDS011;48849;48.758;9.158;2023-10-19T14:39:09;35.50;;;31.63;;
2211;SDS011;48849;48.758;9.158;2023-10-19T14:41:39;39.67;;;35.00;;
2211;SDS011;48849;48.758;9.158;2023-10-19T14:44:13;47.80;;;42.80;;
2211;SDS011;48849;48.758;9.158;2023-10-19T14:46:42;40.80;;;36.40;;
2211;SDS011;48849;48.758;9.158;2023-10-19T14:49:30;38.35;;;34.42;;
2211;SDS011;48849;48.758;9.158;2023-10-19T14:52:02;34.17;;;30.05;;
2211;SDS011;48849;48.758;9.158;2023-10-19T14:54:32;29.75;;;26.70;;
2211;SDS011;48849;48.758;9.158;2023-10-19T14:57:00;29.98;;;26.92;;
2211;SDS011;48849;48.758;9.158;2023-10-19T14:59:31;32.45;;;29.05;;
2211;SDS011;48849;48.758;9.158;2023-10-19T15:02:05;29.85;;;26.88;;
2211;SDS011;48849;48.758;9.158;2023-10-19T15:04:37;26.55;;;23.85;;
2211;SDS011;48849;48.758;9.158;2023-10-19T15:07:11;28.42;;;24.98;;
2211;SDS011;48849;48.758;9.158;2023-10-19T15:09:41;27.13;;;24.35;;
2211;SDS011;48849;48.758;9.158;2023-10-19T15:12:17;36.55;;;32.55;;
2211;SDS011;48849;48.758;9.158;2023-10-19T15:14:44;39.92;;;34.72;;
2211;SDS011;48849;48.758;9.158;2023-10-19T15:17:14;38.88;;;34.58;;
2211;SDS011;48849;48.758;9.158;2023-10-19T15:19:50;39.05;;;34.17;;
2211;SDS011;48849;48.758;9.158;2023-10-19T15:22:30;27.08;;;24.15;;
2211;SDS011;48849;48.758;9.158;2023-10-19T15:25:06;25.88;;;23.08;;
2211;SDS011;48849;48.758;9.158;2023-10-19T15:31:05;20.25;;;18.23;;
2211;SDS011;48849;48.758;9.158;2023-10-19T15:48:39;22.15;;;16.92;;
2211;SDS011;48849;48.758;9.158;2023-10-19T15:51:06;17.05;;;15.25;;
2211;SDS011;48849;48.758;9.158;2023-10-19T15:53:40;17.42;;;15.63;;
2211;SDS011;48849;48.758;9.158;2023-10-19T15:56:09;17.73;;;15.90;;
2211;SDS011;48849;48.758;9.158;2023-10-19T16:01:28;18.08;;;16.17;;
2211;SDS011;48849;48.758;9.158;2023-10-19T16:04:08;19.02;;;17.13;;
2211;SDS011;48849;48.758;9.158;2023-10-19T16:06:47;17.92;;;16.13;;
2211;SDS011;48849;48.758;9.158;2023-10-19T16:09:31;18.58;;;14.75;;
2211;SDS011;48849;48.758;9.158;2023-10-19T16:12:13;15.55;;;14.10;;
2211;SDS011;48849;48.758;9.158;2023-10-19T16:14:58;17.63;;;15.25;;
2211;SDS011;48849;48.758;9.158;2023-10-19T16:17:40;18.50;;;15.02;;
2211;SDS011;48849;48.758;9.158;2023-10-19T16:20:15;15.70;;;14.20;;
2211;SDS011;48849;48.758;9.158;2023-10-19T16:26:22;16.07;;;14.00;;
2211;SDS011;48849;48.758;9.158;2023-10-19T16:28:53;15.10;;;13.55;;
2211;SDS011;48849;48.758;9.158;2023-10-19T16:31:53;16.58;;;14.88;;
2211;SDS011;48849;48.758;9.158;2023-10-19T16:34:38;14.52;;;13.13;;
2211;SDS011;48849;48.758;9.158;2023-10-19T16:37:21;15.02;;;13.07;;
2211;SDS011;48849;48.758;9.158;2023-10-19T16:39:48;15.02;;;13.52;;
2211;SDS011;48849;48.758;9.158;2023-10-19T16:42:21;15.85;;;12.52;;
2211;SDS011;48849;48.758;9.158;2023-10-19T17:02:59;16.30;;;14.65;;
2211;SDS011;48849;48.758;9.158;2023-10-19T17:05:26;15.65;;;13.98;;
2211;SDS011;48849;48.758;9.158;2023-10-19T17:15:01;16.90;;;15.13;;
2211;SDS011;48849;48.758;9.158;2023-10-19T17:17:37;19.52;;;15.68;;
2211;SDS011;48849;48.758;9.158;2023-10-19T17:23:30;17.05;;;15.27;;
2211;SDS011;48849;48.758;9.158;2023-10-19T17:32:33;15.90;;;13.55;;
2211;SDS011;48849;48.758;9.158;2023-10-19T18:20:56;14.70;;;12.65;;
2211;SDS011;48849;48.758;9.158;2023-10-19T18:26:45;17.05;;;13.52;;
2211;SDS011;48849;48.758;9.158;2023-10-19T18:47:56;15.60;;;13.60;;
2211;SDS011;48849;48.758;9.158;2023-10-19T18:50:23;17.17;;;13.23;;
2211;SDS011;48849;48.758;9.158;2023-10-19T18:56:14;15.00;;;13.45;;
2211;SDS011;48849;48.758;9.158;2023-10-19T18:58:41;16.73;;;13.07;;
2211;SDS011;48849;48.758;9.158;2023-10-19T19:01:08;14.50;;;11.68;;
2211;SDS011;48849;48.758;9.158;2023-10-19T19:03:39;14.23;;;12.45;;
2211;SDS011;48849;48.758;9.158;2023-10-19T19:06:06;15.68;;;12.63;;
2211;SDS011;48849;48.758;9.158;2023-10-19T19:12:32;17.98;;;12.18;;
2211;SDS011;48849;48.758;9.158;2023-10-19T19:15:22;13.60;;;12.30;;
2211;SDS011;48849;48.758;9.158;2023-10-19T19:17:56;18.03;;;14.27;;
2211;SDS011;48849;48.758;9.158;2023-10-19T19:20:25;17.38;;;13.43;;
2211;SDS011;48849;48.758;9.158;2023-10-19T19:22:52;14.82;;;13.40;;
2211;SDS011;48849;48.758;9.158;2023-10-19T19:25:25;12.95;;;11.60;;
2211;SDS011;48849;48.758;9.158;2023-10-19T19:28:09;13.82;;;12.38;;
2211;SDS011;48849;48.758;9.158;2023-10-19T19:30:50;17.58;;;12.55;;
2211;SDS011;48849;48.758;9.158;2023-10-19T19:33:27;13.43;;;12.00;;
2211;SDS011;48849;48.758;9.158;2023-10-19T19:36:03;14.00;;;12.55;;
2211;SDS011;48849;48.758;9.158;2023-10-19T19:41:44;13.80;;;12.20;;
2211;SDS011;48849;48.758;9.158;2023-10-19T19:44:12;16.02;;;14.32;;
2211;SDS011;48849;48.758;9.158;2023-10-19T19:46:39;15.48;;;13.57;;
2211;SDS011;48849;48.758;9.158;2023-10-19T19:49:05;13.95;;;12.55;;
2211;SDS011;48849;48.758;9.158;2023-10-19T19:51:35;16.98;;;14.80;;
2211;SDS011;48849;48.758;9.158;2023-10-19T19:54:02;14.35;;;12.50;;
2211;SDS011;48849;48.758;9.158;2023-10-19T19:56:29;14.60;;;13.20;;
2211;SDS011;48849;48.758;9.158;2023-10-19T19:59:19;15.93;;;14.30;;